« Back
NWS Peachtree City, Ga » Text Product » CSG Terminal Aerodrome Forecast


Printer-friendly Version
Current Version              Previous Versions:   1  2  3  4  5  6  7  8  9  

Terminal Aerodrome Forecast

752
FTUS42 KFFC 011120
TAFCSG
TAF
KCSG 011120Z 0112/0212 VRB03KT P6SM FEW025 SCT050
     FM011500 VRB03KT P6SM SCT030
     FM011800 VRB05KT P6SM SCT050 SCT250
     FM020000 VRB03KT P6SM SCT250=

USA.gov is the U.S. government's official web portal to all federal, state and local government web resources and services.